sensor_id;sensor_type;location;lat;lon;timestamp;temperature;humidity
14489;DHT22;7330;50.804;4.550;2022-11-22T00:01:37;8.60;99.90
14489;DHT22;7330;50.804;4.550;2022-11-22T00:04:03;8.50;99.90
14489;DHT22;7330;50.804;4.550;2022-11-22T00:06:30;8.50;99.90
14489;DHT22;7330;50.804;4.550;2022-11-22T00:08:57;8.50;99.90
14489;DHT22;7330;50.804;4.550;2022-11-22T00:11:25;8.50;99.90
14489;DHT22;7330;50.804;4.550;2022-11-22T00:13:52;8.50;99.90
14489;DHT22;7330;50.804;4.550;2022-11-22T00:16:19;8.40;99.90
14489;DHT22;7330;50.804;4.550;2022-11-22T00:18:46;8.40;99.90
14489;DHT22;7330;50.804;4.550;2022-11-22T00:21:12;8.40;99.90
14489;DHT22;7330;50.804;4.550;2022-11-22T00:23:39;8.40;99.90
14489;DHT22;7330;50.804;4.550;2022-11-22T00:26:06;8.30;99.90
14489;DHT22;7330;50.804;4.550;2022-11-22T00:33:31;8.20;99.90
14489;DHT22;7330;50.804;4.550;2022-11-22T00:35:58;8.20;99.90
14489;DHT22;7330;50.804;4.550;2022-11-22T00:38:25;8.20;99.90
14489;DHT22;7330;50.804;4.550;2022-11-22T00:40:51;8.20;99.90
14489;DHT22;7330;50.804;4.550;2022-11-22T00:43:18;8.10;99.90
14489;DHT22;7330;50.804;4.550;2022-11-22T00:45:45;8.10;99.90
14489;DHT22;7330;50.804;4.550;2022-11-22T00:48:11;8.10;99.90
14489;DHT22;7330;50.804;4.550;2022-11-22T00:50:39;8.00;99.90
14489;DHT22;7330;50.804;4.550;2022-11-22T00:53:06;8.00;99.90
14489;DHT22;7330;50.804;4.550;2022-11-22T00:55:33;8.00;99.90
14489;DHT22;7330;50.804;4.550;2022-11-22T00:58:00;8.00;99.90
14489;DHT22;7330;50.804;4.550;2022-11-22T01:00:26;7.90;99.90
14489;DHT22;7330;50.804;4.550;2022-11-22T01:05:20;7.90;99.90
14489;DHT22;7330;50.804;4.550;2022-11-22T01:07:48;7.90;99.90
14489;DHT22;7330;50.804;4.550;2022-11-22T01:10:15;7.90;99.90
14489;DHT22;7330;50.804;4.550;2022-11-22T01:15:09;7.90;99.90
14489;DHT22;7330;50.804;4.550;2022-11-22T01:17:36;7.90;99.90
14489;DHT22;7330;50.804;4.550;2022-11-22T01:22:29;7.80;99.90
14489;DHT22;7330;50.804;4.550;2022-11-22T01:24:58;7.80;99.90
14489;DHT22;7330;50.804;4.550;2022-11-22T01:27:24;7.70;99.90
14489;DHT22;7330;50.804;4.550;2022-11-22T01:29:51;7.70;99.90
14489;DHT22;7330;50.804;4.550;2022-11-22T01:32:18;7.70;99.90
14489;DHT22;7330;50.804;4.550;2022-11-22T01:37:12;7.60;99.90
14489;DHT22;7330;50.804;4.550;2022-11-22T01:39:39;7.60;99.90
14489;DHT22;7330;50.804;4.550;2022-11-22T01:42:08;7.60;99.90
14489;DHT22;7330;50.804;4.550;2022-11-22T01:44:38;7.60;99.90
14489;DHT22;7330;50.804;4.550;2022-11-22T01:47:06;7.60;99.90
14489;DHT22;7330;50.804;4.550;2022-11-22T01:49:36;7.50;99.90
14489;DHT22;7330;50.804;4.550;2022-11-22T01:52:06;7.60;99.90
14489;DHT22;7330;50.804;4.550;2022-11-22T01:59:29;7.50;99.90
14489;DHT22;7330;50.804;4.550;2022-11-22T02:01:57;7.40;99.90
14489;DHT22;7330;50.804;4.550;2022-11-22T02:04:24;7.40;99.90
14489;DHT22;7330;50.804;4.550;2022-11-22T02:06:55;7.40;99.90
14489;DHT22;7330;50.804;4.550;2022-11-22T02:09:23;7.40;99.90
14489;DHT22;7330;50.804;4.550;2022-11-22T02:11:52;7.40;99.90
14489;DHT22;7330;50.804;4.550;2022-11-22T02:14:20;7.30;99.90
14489;DHT22;7330;50.804;4.550;2022-11-22T02:16:50;7.30;99.90
14489;DHT22;7330;50.804;4.550;2022-11-22T02:19:18;7.30;99.90
14489;DHT22;7330;50.804;4.550;2022-11-22T02:21:45;7.20;99.90
14489;DHT22;7330;50.804;4.550;2022-11-22T02:26:43;7.30;99.90
14489;DHT22;7330;50.804;4.550;2022-11-22T02:29:09;7.20;99.90
14489;DHT22;7330;50.804;4.550;2022-11-22T02:31:39;7.20;99.90
14489;DHT22;7330;50.804;4.550;2022-11-22T02:34:06;7.20;99.90
14489;DHT22;7330;50.804;4.550;2022-11-22T02:36:34;7.20;99.90
14489;DHT22;7330;50.804;4.550;2022-11-22T02:41:30;7.20;99.90
14489;DHT22;7330;50.804;4.550;2022-11-22T02:43:58;7.10;99.90
14489;DHT22;7330;50.804;4.550;2022-11-22T02:48:52;7.10;99.90
14489;DHT22;7330;50.804;4.550;2022-11-22T02:56:13;7.00;99.90
14489;DHT22;7330;50.804;4.550;2022-11-22T03:01:09;7.00;99.90
14489;DHT22;7330;50.804;4.550;2022-11-22T03:03:38;7.00;99.90
14489;DHT22;7330;50.804;4.550;2022-11-22T03:06:05;6.90;99.90
14489;DHT22;7330;50.804;4.550;2022-11-22T03:10:58;6.90;99.90
14489;DHT22;7330;50.804;4.550;2022-11-22T03:13:25;6.80;99.90
14489;DHT22;7330;50.804;4.550;2022-11-22T03:15:52;6.90;99.90
14489;DHT22;7330;50.804;4.550;2022-11-22T03:18:20;6.80;99.90
14489;DHT22;7330;50.804;4.550;2022-11-22T03:20:47;6.80;99.90
14489;DHT22;7330;50.804;4.550;2022-11-22T03:25:40;6.80;99.90
14489;DHT22;7330;50.804;4.550;2022-11-22T03:28:07;6.80;99.90
14489;DHT22;7330;50.804;4.550;2022-11-22T03:33:01;6.80;99.90
14489;DHT22;7330;50.804;4.550;2022-11-22T03:35:29;6.70;99.90
14489;DHT22;7330;50.804;4.550;2022-11-22T03:37:56;6.70;99.90
14489;DHT22;7330;50.804;4.550;2022-11-22T03:40:22;6.70;99.90
14489;DHT22;7330;50.804;4.550;2022-11-22T03:42:49;6.70;99.90
14489;DHT22;7330;50.804;4.550;2022-11-22T03:45:16;6.70;99.90
14489;DHT22;7330;50.804;4.550;2022-11-22T03:47:43;6.70;99.90
14489;DHT22;7330;50.804;4.550;2022-11-22T03:55:05;6.70;99.90
14489;DHT22;7330;50.804;4.550;2022-11-22T03:57:32;6.70;99.90
14489;DHT22;7330;50.804;4.550;2022-11-22T03:59:59;6.70;99.90
14489;DHT22;7330;50.804;4.550;2022-11-22T04:02:25;6.60;99.90
14489;DHT22;7330;50.804;4.550;2022-11-22T04:04:52;6.60;99.90
14489;DHT22;7330;50.804;4.550;2022-11-22T04:09:46;6.70;99.90
14489;DHT22;7330;50.804;4.550;2022-11-22T04:12:14;6.60;99.90
14489;DHT22;7330;50.804;4.550;2022-11-22T04:14:41;6.60;99.90
14489;DHT22;7330;50.804;4.550;2022-11-22T04:17:25;6.60;99.90
14489;DHT22;7330;50.804;4.550;2022-11-22T04:22:54;6.60;99.90
14489;DHT22;7330;50.804;4.550;2022-11-22T04:27:48;6.60;99.90
14489;DHT22;7330;50.804;4.550;2022-11-22T04:30:15;6.60;99.90
14489;DHT22;7330;50.804;4.550;2022-11-22T04:32:41;6.60;99.90
14489;DHT22;7330;50.804;4.550;2022-11-22T04:35:11;6.60;99.90
14489;DHT22;7330;50.804;4.550;2022-11-22T04:37:37;6.60;99.90
14489;DHT22;7330;50.804;4.550;2022-11-22T04:40:05;6.50;99.90
14489;DHT22;7330;50.804;4.550;2022-11-22T04:42:32;6.50;99.90
14489;DHT22;7330;50.804;4.550;2022-11-22T04:45:17;6.50;99.90
14489;DHT22;7330;50.804;4.550;2022-11-22T04:47:44;6.50;99.90
14489;DHT22;7330;50.804;4.550;2022-11-22T04:50:26;6.50;99.90
14489;DHT22;7330;50.804;4.550;2022-11-22T04:53:11;6.50;99.90
14489;DHT22;7330;50.804;4.550;2022-11-22T04:55:38;6.50;99.90
14489;DHT22;7330;50.804;4.550;2022-11-22T04:58:06;6.40;99.90
14489;DHT22;7330;50.804;4.550;2022-11-22T05:00:34;6.40;99.90
14489;DHT22;7330;50.804;4.550;2022-11-22T05:03:01;6.40;99.90
14489;DHT22;7330;50.804;4.550;2022-11-22T05:05:28;6.50;99.90
14489;DHT22;7330;50.804;4.550;2022-11-22T05:07:55;6.50;99.90
14489;DHT22;7330;50.804;4.550;2022-11-22T05:10:23;6.50;99.90
14489;DHT22;7330;50.804;4.550;2022-11-22T05:12:50;6.50;99.90
14489;DHT22;7330;50.804;4.550;2022-11-22T05:15:17;6.50;99.90
14489;DHT22;7330;50.804;4.550;2022-11-22T05:17:45;6.50;99.90
14489;DHT22;7330;50.804;4.550;2022-11-22T05:20:11;6.50;99.90
14489;DHT22;7330;50.804;4.550;2022-11-22T05:22:38;6.50;99.90
14489;DHT22;7330;50.804;4.550;2022-11-22T05:25:22;6.50;99.90
14489;DHT22;7330;50.804;4.550;2022-11-22T05:30:16;6.50;99.90
14489;DHT22;7330;50.804;4.550;2022-11-22T05:32:45;6.50;99.90
14489;DHT22;7330;50.804;4.550;2022-11-22T05:35:11;6.50;99.90
14489;DHT22;7330;50.804;4.550;2022-11-22T05:37:39;6.60;99.90
14489;DHT22;7330;50.804;4.550;2022-11-22T05:40:06;6.50;99.90
14489;DHT22;7330;50.804;4.550;2022-11-22T05:45:00;6.50;99.90
14489;DHT22;7330;50.804;4.550;2022-11-22T05:47:27;6.50;99.90
14489;DHT22;7330;50.804;4.550;2022-11-22T05:49:55;6.60;99.90
14489;DHT22;7330;50.804;4.550;2022-11-22T05:54:49;6.60;99.90
14489;DHT22;7330;50.804;4.550;2022-11-22T05:57:15;6.60;99.90
14489;DHT22;7330;50.804;4.550;2022-11-22T06:02:09;6.60;99.90
14489;DHT22;7330;50.804;4.550;2022-11-22T06:11:58;6.70;99.90
14489;DHT22;7330;50.804;4.550;2022-11-22T06:14:25;6.70;99.90
14489;DHT22;7330;50.804;4.550;2022-11-22T06:16:52;6.80;99.90
14489;DHT22;7330;50.804;4.550;2022-11-22T06:21:46;6.80;99.90
14489;DHT22;7330;50.804;4.550;2022-11-22T06:24:13;6.80;99.90
14489;DHT22;7330;50.804;4.550;2022-11-22T06:29:08;6.90;99.90
14489;DHT22;7330;50.804;4.550;2022-11-22T06:31:34;7.00;99.90
14489;DHT22;7330;50.804;4.550;2022-11-22T06:34:01;7.00;99.90
14489;DHT22;7330;50.804;4.550;2022-11-22T06:36:29;7.00;99.90
14489;DHT22;7330;50.804;4.550;2022-11-22T06:38:56;7.00;99.90
14489;DHT22;7330;50.804;4.550;2022-11-22T06:41:23;7.00;99.90
14489;DHT22;7330;50.804;4.550;2022-11-22T06:43:51;7.10;99.90
14489;DHT22;7330;50.804;4.550;2022-11-22T06:48:46;7.20;99.90
14489;DHT22;7330;50.804;4.550;2022-11-22T06:53:40;7.10;99.90
14489;DHT22;7330;50.804;4.550;2022-11-22T06:58:34;7.10;99.90
14489;DHT22;7330;50.804;4.550;2022-11-22T07:01:01;7.10;99.90
14489;DHT22;7330;50.804;4.550;2022-11-22T07:03:29;7.10;99.90
14489;DHT22;7330;50.804;4.550;2022-11-22T07:05:57;7.20;99.90
14489;DHT22;7330;50.804;4.550;2022-11-22T07:10:51;7.30;99.90
14489;DHT22;7330;50.804;4.550;2022-11-22T07:15:52;7.30;99.90
14489;DHT22;7330;50.804;4.550;2022-11-22T07:18:19;7.30;99.90
14489;DHT22;7330;50.804;4.550;2022-11-22T07:20:45;7.30;99.90
14489;DHT22;7330;50.804;4.550;2022-11-22T07:23:14;7.30;99.90
14489;DHT22;7330;50.804;4.550;2022-11-22T07:25:42;7.30;99.90
14489;DHT22;7330;50.804;4.550;2022-11-22T07:28:09;7.40;99.90
14489;DHT22;7330;50.804;4.550;2022-11-22T07:30:35;7.30;99.90
14489;DHT22;7330;50.804;4.550;2022-11-22T07:33:02;7.30;99.90
14489;DHT22;7330;50.804;4.550;2022-11-22T07:35:29;7.30;99.90
14489;DHT22;7330;50.804;4.550;2022-11-22T07:40:25;7.40;99.90
14489;DHT22;7330;50.804;4.550;2022-11-22T07:42:52;7.40;99.90
14489;DHT22;7330;50.804;4.550;2022-11-22T07:45:18;7.40;99.90
14489;DHT22;7330;50.804;4.550;2022-11-22T07:47:45;7.40;99.90
14489;DHT22;7330;50.804;4.550;2022-11-22T07:52:39;7.40;99.90
14489;DHT22;7330;50.804;4.550;2022-11-22T07:57:35;7.50;99.90
14489;DHT22;7330;50.804;4.550;2022-11-22T08:02:28;7.50;99.90
14489;DHT22;7330;50.804;4.550;2022-11-22T08:09:49;7.50;99.90
14489;DHT22;7330;50.804;4.550;2022-11-22T08:17:12;7.60;99.90
14489;DHT22;7330;50.804;4.550;2022-11-22T08:19:38;7.60;99.90
14489;DHT22;7330;50.804;4.550;2022-11-22T08:24:32;7.60;99.90
14489;DHT22;7330;50.804;4.550;2022-11-22T08:26:59;7.60;99.90
14489;DHT22;7330;50.804;4.550;2022-11-22T08:29:26;7.60;99.90
14489;DHT22;7330;50.804;4.550;2022-11-22T08:31:54;7.60;99.90
14489;DHT22;7330;50.804;4.550;2022-11-22T08:39:25;7.70;99.90
14489;DHT22;7330;50.804;4.550;2022-11-22T08:41:51;7.60;99.90
14489;DHT22;7330;50.804;4.550;2022-11-22T08:49:12;7.60;99.90
14489;DHT22;7330;50.804;4.550;2022-11-22T08:51:39;7.70;99.90
14489;DHT22;7330;50.804;4.550;2022-11-22T08:54:09;7.70;99.90
14489;DHT22;7330;50.804;4.550;2022-11-22T08:56:37;7.60;99.90
14489;DHT22;7330;50.804;4.550;2022-11-22T08:59:07;7.60;99.90
14489;DHT22;7330;50.804;4.550;2022-11-22T09:01:36;7.60;99.90
14489;DHT22;7330;50.804;4.550;2022-11-22T09:06:30;7.70;99.90
14489;DHT22;7330;50.804;4.550;2022-11-22T09:08:57;7.70;99.90
14489;DHT22;7330;50.804;4.550;2022-11-22T09:16:21;7.80;99.90
14489;DHT22;7330;50.804;4.550;2022-11-22T09:18:51;7.80;99.90
14489;DHT22;7330;50.804;4.550;2022-11-22T09:21:17;7.80;99.90
14489;DHT22;7330;50.804;4.550;2022-11-22T09:23:45;7.90;99.90
14489;DHT22;7330;50.804;4.550;2022-11-22T09:28:39;7.90;99.90
14489;DHT22;7330;50.804;4.550;2022-11-22T09:31:09;7.90;99.90
14489;DHT22;7330;50.804;4.550;2022-11-22T09:38:34;7.90;99.90
14489;DHT22;7330;50.804;4.550;2022-11-22T09:41:01;8.00;99.90
14489;DHT22;7330;50.804;4.550;2022-11-22T09:43:33;7.90;99.90
14489;DHT22;7330;50.804;4.550;2022-11-22T09:46:17;8.00;99.90
14489;DHT22;7330;50.804;4.550;2022-11-22T09:48:50;8.00;99.90
14489;DHT22;7330;50.804;4.550;2022-11-22T09:51:24;8.00;99.90
14489;DHT22;7330;50.804;4.550;2022-11-22T09:53:56;8.00;99.90
14489;DHT22;7330;50.804;4.550;2022-11-22T09:56:24;8.00;99.90
14489;DHT22;7330;50.804;4.550;2022-11-22T09:58:53;8.00;99.90
14489;DHT22;7330;50.804;4.550;2022-11-22T10:03:48;8.00;99.90
14489;DHT22;7330;50.804;4.550;2022-11-22T10:06:19;8.00;99.90
14489;DHT22;7330;50.804;4.550;2022-11-22T10:11:20;8.10;99.90
14489;DHT22;7330;50.804;4.550;2022-11-22T10:13:50;8.20;99.90
14489;DHT22;7330;50.804;4.550;2022-11-22T10:16:19;8.20;99.90
14489;DHT22;7330;50.804;4.550;2022-11-22T10:18:48;8.30;99.90
14489;DHT22;7330;50.804;4.550;2022-11-22T10:21:17;8.30;99.90
14489;DHT22;7330;50.804;4.550;2022-11-22T10:23:44;8.40;99.90
14489;DHT22;7330;50.804;4.550;2022-11-22T10:26:14;8.40;99.90
14489;DHT22;7330;50.804;4.550;2022-11-22T10:31:14;8.50;99.90
14489;DHT22;7330;50.804;4.550;2022-11-22T10:36:21;8.60;99.90
14489;DHT22;7330;50.804;4.550;2022-11-22T10:38:55;8.60;99.90
14489;DHT22;7330;50.804;4.550;2022-11-22T10:41:27;8.70;99.90
14489;DHT22;7330;50.804;4.550;2022-11-22T10:43:59;8.60;99.90
14489;DHT22;7330;50.804;4.550;2022-11-22T10:46:31;8.60;99.90
14489;DHT22;7330;50.804;4.550;2022-11-22T10:49:01;8.70;99.90
14489;DHT22;7330;50.804;4.550;2022-11-22T10:51:31;8.80;99.90
14489;DHT22;7330;50.804;4.550;2022-11-22T10:54:02;8.90;99.90
14489;DHT22;7330;50.804;4.550;2022-11-22T10:59:03;8.90;99.90
14489;DHT22;7330;50.804;4.550;2022-11-22T11:04:03;8.90;99.90
14489;DHT22;7330;50.804;4.550;2022-11-22T11:06:31;9.00;99.90
14489;DHT22;7330;50.804;4.550;2022-11-22T11:09:02;9.00;99.90
14489;DHT22;7330;50.804;4.550;2022-11-22T11:11:29;9.00;99.90
14489;DHT22;7330;50.804;4.550;2022-11-22T11:13:57;9.00;99.90
14489;DHT22;7330;50.804;4.550;2022-11-22T11:16:25;9.00;99.90
14489;DHT22;7330;50.804;4.550;2022-11-22T11:18:55;9.10;99.90
14489;DHT22;7330;50.804;4.550;2022-11-22T11:21:24;9.10;99.90
14489;DHT22;7330;50.804;4.550;2022-11-22T11:26:22;9.10;99.90
14489;DHT22;7330;50.804;4.550;2022-11-22T11:28:49;9.10;99.90
14489;DHT22;7330;50.804;4.550;2022-11-22T11:31:16;9.00;99.90
14489;DHT22;7330;50.804;4.550;2022-11-22T11:33:46;9.00;99.90
14489;DHT22;7330;50.804;4.550;2022-11-22T11:36:14;9.10;99.90
14489;DHT22;7330;50.804;4.550;2022-11-22T11:38:53;9.10;99.90
14489;DHT22;7330;50.804;4.550;2022-11-22T11:41:23;9.10;99.90
14489;DHT22;7330;50.804;4.550;2022-11-22T11:43:51;9.10;99.90
14489;DHT22;7330;50.804;4.550;2022-11-22T11:46:19;9.10;99.90
14489;DHT22;7330;50.804;4.550;2022-11-22T11:48:46;9.10;99.90
14489;DHT22;7330;50.804;4.550;2022-11-22T11:53:40;9.20;99.90
14489;DHT22;7330;50.804;4.550;2022-11-22T11:56:31;9.20;99.90
14489;DHT22;7330;50.804;4.550;2022-11-22T11:58:58;9.20;99.90
14489;DHT22;7330;50.804;4.550;2022-11-22T12:01:28;9.20;99.90
14489;DHT22;7330;50.804;4.550;2022-11-22T12:03:59;9.20;99.90
14489;DHT22;7330;50.804;4.550;2022-11-22T12:06:28;9.20;99.90
14489;DHT22;7330;50.804;4.550;2022-11-22T12:08:55;9.30;99.90
14489;DHT22;7330;50.804;4.550;2022-11-22T12:16:19;9.40;99.90
14489;DHT22;7330;50.804;4.550;2022-11-22T12:21:25;9.50;99.90
14489;DHT22;7330;50.804;4.550;2022-11-22T12:23:55;9.50;99.90
14489;DHT22;7330;50.804;4.550;2022-11-22T12:26:24;9.50;99.90
14489;DHT22;7330;50.804;4.550;2022-11-22T12:28:52;9.40;99.90
14489;DHT22;7330;50.804;4.550;2022-11-22T12:31:24;9.50;99.90
14489;DHT22;7330;50.804;4.550;2022-11-22T12:33:53;9.50;99.90
14489;DHT22;7330;50.804;4.550;2022-11-22T12:36:22;9.60;99.90
14489;DHT22;7330;50.804;4.550;2022-11-22T12:38:51;9.60;99.90
14489;DHT22;7330;50.804;4.550;2022-11-22T12:41:19;9.60;99.90
14489;DHT22;7330;50.804;4.550;2022-11-22T12:43:48;9.60;99.90
14489;DHT22;7330;50.804;4.550;2022-11-22T12:48:46;9.60;99.90
14489;DHT22;7330;50.804;4.550;2022-11-22T12:53:41;9.70;99.90
14489;DHT22;7330;50.804;4.550;2022-11-22T12:56:11;9.60;99.90
14489;DHT22;7330;50.804;4.550;2022-11-22T12:58:43;9.60;99.90
14489;DHT22;7330;50.804;4.550;2022-11-22T13:01:14;9.60;99.90
14489;DHT22;7330;50.804;4.550;2022-11-22T13:06:11;9.60;99.90
14489;DHT22;7330;50.804;4.550;2022-11-22T13:11:09;9.60;99.90
14489;DHT22;7330;50.804;4.550;2022-11-22T13:16:06;9.60;99.90
14489;DHT22;7330;50.804;4.550;2022-11-22T13:18:33;9.60;99.90
14489;DHT22;7330;50.804;4.550;2022-11-22T13:23:38;9.50;99.90
14489;DHT22;7330;50.804;4.550;2022-11-22T13:26:11;9.60;99.90
14489;DHT22;7330;50.804;4.550;2022-11-22T13:28:39;9.60;99.90
14489;DHT22;7330;50.804;4.550;2022-11-22T13:31:11;9.60;99.90
14489;DHT22;7330;50.804;4.550;2022-11-22T13:33:39;9.60;99.90
14489;DHT22;7330;50.804;4.550;2022-11-22T13:36:21;9.70;99.90
14489;DHT22;7330;50.804;4.550;2022-11-22T13:38:49;9.70;99.90
14489;DHT22;7330;50.804;4.550;2022-11-22T13:53:56;9.80;99.90
14489;DHT22;7330;50.804;4.550;2022-11-22T13:56:47;9.80;99.90
14489;DHT22;7330;50.804;4.550;2022-11-22T13:59:15;9.90;99.90
14489;DHT22;7330;50.804;4.550;2022-11-22T14:04:39;9.90;99.90
14489;DHT22;7330;50.804;4.550;2022-11-22T14:07:19;9.90;99.90
14489;DHT22;7330;50.804;4.550;2022-11-22T14:09:55;10.00;99.90
14489;DHT22;7330;50.804;4.550;2022-11-22T14:12:25;9.90;99.90
14489;DHT22;7330;50.804;4.550;2022-11-22T14:15:02;10.00;99.90
14489;DHT22;7330;50.804;4.550;2022-11-22T14:17:33;10.00;99.90
14489;DHT22;7330;50.804;4.550;2022-11-22T14:20:06;10.10;99.90
14489;DHT22;7330;50.804;4.550;2022-11-22T14:30:10;10.10;99.90
14489;DHT22;7330;50.804;4.550;2022-11-22T14:32:39;10.10;99.90
14489;DHT22;7330;50.804;4.550;2022-11-22T14:35:13;10.10;99.90
14489;DHT22;7330;50.804;4.550;2022-11-22T14:37:43;10.20;99.90
14489;DHT22;7330;50.804;4.550;2022-11-22T14:40:15;10.10;99.90
14489;DHT22;7330;50.804;4.550;2022-11-22T14:45:28;10.10;99.90
14489;DHT22;7330;50.804;4.550;2022-11-22T14:48:00;10.20;99.90
14489;DHT22;7330;50.804;4.550;2022-11-22T14:50:30;10.10;99.90
14489;DHT22;7330;50.804;4.550;2022-11-22T14:55:25;10.20;99.90
14489;DHT22;7330;50.804;4.550;2022-11-22T14:57:55;10.20;99.90
14489;DHT22;7330;50.804;4.550;2022-11-22T15:00:24;10.20;99.90
14489;DHT22;7330;50.804;4.550;2022-11-22T15:03:01;10.20;99.90
14489;DHT22;7330;50.804;4.550;2022-11-22T15:05:34;10.20;99.90
14489;DHT22;7330;50.804;4.550;2022-11-22T15:08:14;10.20;99.90
14489;DHT22;7330;50.804;4.550;2022-11-22T15:10:50;10.20;99.90
14489;DHT22;7330;50.804;4.550;2022-11-22T15:16:09;10.20;99.90
14489;DHT22;7330;50.804;4.550;2022-11-22T15:18:46;10.20;99.90
14489;DHT22;7330;50.804;4.550;2022-11-22T15:26:11;10.20;99.90
14489;DHT22;7330;50.804;4.550;2022-11-22T15:28:43;10.10;99.90
14489;DHT22;7330;50.804;4.550;2022-11-22T15:33:46;10.10;99.90
14489;DHT22;7330;50.804;4.550;2022-11-22T15:36:16;10.10;99.90
14489;DHT22;7330;50.804;4.550;2022-11-22T15:38:47;10.10;99.90
14489;DHT22;7330;50.804;4.550;2022-11-22T15:41:17;10.10;99.90
14489;DHT22;7330;50.804;4.550;2022-11-22T15:43:44;10.10;99.90
14489;DHT22;7330;50.804;4.550;2022-11-22T15:46:12;10.10;99.90
14489;DHT22;7330;50.804;4.550;2022-11-22T15:48:40;10.10;99.90
14489;DHT22;7330;50.804;4.550;2022-11-22T15:51:22;10.10;99.90
14489;DHT22;7330;50.804;4.550;2022-11-22T15:56:17;10.10;99.90
14489;DHT22;7330;50.804;4.550;2022-11-22T16:01:16;10.00;99.90
14489;DHT22;7330;50.804;4.550;2022-11-22T16:06:12;10.00;99.90
14489;DHT22;7330;50.804;4.550;2022-11-22T16:08:47;10.00;99.90
14489;DHT22;7330;50.804;4.550;2022-11-22T16:13:40;9.90;99.90
14489;DHT22;7330;50.804;4.550;2022-11-22T16:16:17;9.90;99.90
14489;DHT22;7330;50.804;4.550;2022-11-22T16:18:44;9.90;99.90
14489;DHT22;7330;50.804;4.550;2022-11-22T16:21:23;10.00;99.90
14489;DHT22;7330;50.804;4.550;2022-11-22T16:24:14;10.00;99.90
14489;DHT22;7330;50.804;4.550;2022-11-22T16:26:42;10.00;99.90
14489;DHT22;7330;50.804;4.550;2022-11-22T16:29:18;10.00;99.90
14489;DHT22;7330;50.804;4.550;2022-11-22T16:39:12;10.10;99.90
14489;DHT22;7330;50.804;4.550;2022-11-22T16:44:10;10.10;99.90
14489;DHT22;7330;50.804;4.550;2022-11-22T16:56:27;10.10;99.90
14489;DHT22;7330;50.804;4.550;2022-11-22T16:58:55;10.10;99.90
14489;DHT22;7330;50.804;4.550;2022-11-22T17:01:23;10.20;99.90
14489;DHT22;7330;50.804;4.550;2022-11-22T17:03:55;10.20;99.90
14489;DHT22;7330;50.804;4.550;2022-11-22T17:06:22;10.20;99.90
14489;DHT22;7330;50.804;4.550;2022-11-22T17:08:50;10.10;99.90
14489;DHT22;7330;50.804;4.550;2022-11-22T17:11:17;10.20;99.90
14489;DHT22;7330;50.804;4.550;2022-11-22T17:13:46;10.20;99.90
14489;DHT22;7330;50.804;4.550;2022-11-22T17:16:13;10.20;99.90
14489;DHT22;7330;50.804;4.550;2022-11-22T17:18:42;10.20;99.90
14489;DHT22;7330;50.804;4.550;2022-11-22T17:21:09;10.30;99.90
14489;DHT22;7330;50.804;4.550;2022-11-22T17:26:08;10.30;99.90
14489;DHT22;7330;50.804;4.550;2022-11-22T17:28:35;10.30;99.90
14489;DHT22;7330;50.804;4.550;2022-11-22T17:33:32;10.30;99.90
14489;DHT22;7330;50.804;4.550;2022-11-22T17:35:59;10.30;99.90
14489;DHT22;7330;50.804;4.550;2022-11-22T17:38:26;10.30;99.90
14489;DHT22;7330;50.804;4.550;2022-11-22T17:40:57;10.30;99.90
14489;DHT22;7330;50.804;4.550;2022-11-22T17:45:50;10.30;99.90
14489;DHT22;7330;50.804;4.550;2022-11-22T17:48:17;10.40;99.90
14489;DHT22;7330;50.804;4.550;2022-11-22T17:50:45;10.40;99.90
14489;DHT22;7330;50.804;4.550;2022-11-22T17:53:12;10.40;99.90
14489;DHT22;7330;50.804;4.550;2022-11-22T17:55:39;10.50;99.90
14489;DHT22;7330;50.804;4.550;2022-11-22T17:58:06;10.50;99.90
14489;DHT22;7330;50.804;4.550;2022-11-22T18:00:35;10.50;99.90
14489;DHT22;7330;50.804;4.550;2022-11-22T18:03:02;10.40;99.90
14489;DHT22;7330;50.804;4.550;2022-11-22T18:07:57;10.40;99.90
14489;DHT22;7330;50.804;4.550;2022-11-22T18:10:24;10.30;99.90
14489;DHT22;7330;50.804;4.550;2022-11-22T18:12:51;10.40;99.90
14489;DHT22;7330;50.804;4.550;2022-11-22T18:15:18;10.40;99.90
14489;DHT22;7330;50.804;4.550;2022-11-22T18:17:44;10.40;99.90
14489;DHT22;7330;50.804;4.550;2022-11-22T18:20:12;10.40;99.90
14489;DHT22;7330;50.804;4.550;2022-11-22T18:22:39;10.40;99.90
14489;DHT22;7330;50.804;4.550;2022-11-22T18:25:07;10.40;99.90
14489;DHT22;7330;50.804;4.550;2022-11-22T18:30:01;10.40;99.90
14489;DHT22;7330;50.804;4.550;2022-11-22T18:32:28;10.30;99.90
14489;DHT22;7330;50.804;4.550;2022-11-22T18:34:58;10.30;99.90
14489;DHT22;7330;50.804;4.550;2022-11-22T18:39:52;10.30;99.90
14489;DHT22;7330;50.804;4.550;2022-11-22T18:42:21;10.30;99.90
14489;DHT22;7330;50.804;4.550;2022-11-22T18:44:48;10.40;99.90
14489;DHT22;7330;50.804;4.550;2022-11-22T18:47:15;10.30;99.90
14489;DHT22;7330;50.804;4.550;2022-11-22T18:49:42;10.30;99.90
14489;DHT22;7330;50.804;4.550;2022-11-22T18:52:09;10.30;99.90
14489;DHT22;7330;50.804;4.550;2022-11-22T18:54:35;10.30;99.90
14489;DHT22;7330;50.804;4.550;2022-11-22T18:57:02;10.30;99.90
14489;DHT22;7330;50.804;4.550;2022-11-22T19:01:58;10.30;99.90
14489;DHT22;7330;50.804;4.550;2022-11-22T19:04:25;10.20;99.90
14489;DHT22;7330;50.804;4.550;2022-11-22T19:06:51;10.20;99.90
14489;DHT22;7330;50.804;4.550;2022-11-22T19:09:19;10.20;99.90
14489;DHT22;7330;50.804;4.550;2022-11-22T19:11:46;10.20;99.90
14489;DHT22;7330;50.804;4.550;2022-11-22T19:14:13;10.20;99.90
14489;DHT22;7330;50.804;4.550;2022-11-22T19:19:09;10.20;99.90
14489;DHT22;7330;50.804;4.550;2022-11-22T19:21:36;10.20;99.90
14489;DHT22;7330;50.804;4.550;2022-11-22T19:24:03;10.20;99.90
14489;DHT22;7330;50.804;4.550;2022-11-22T19:26:30;10.20;99.90
14489;DHT22;7330;50.804;4.550;2022-11-22T19:28:58;10.20;99.90
14489;DHT22;7330;50.804;4.550;2022-11-22T19:33:55;10.20;99.90
14489;DHT22;7330;50.804;4.550;2022-11-22T19:36:24;10.10;99.90
14489;DHT22;7330;50.804;4.550;2022-11-22T19:41:19;10.10;99.90
14489;DHT22;7330;50.804;4.550;2022-11-22T19:43:46;10.00;99.90
14489;DHT22;7330;50.804;4.550;2022-11-22T19:46:13;10.10;99.90
14489;DHT22;7330;50.804;4.550;2022-11-22T19:48:40;10.00;99.90
14489;DHT22;7330;50.804;4.550;2022-11-22T19:51:07;10.10;99.90
14489;DHT22;7330;50.804;4.550;2022-11-22T19:53:36;10.10;99.90
14489;DHT22;7330;50.804;4.550;2022-11-22T19:58:30;10.10;99.90
14489;DHT22;7330;50.804;4.550;2022-11-22T20:03:24;10.10;99.90
14489;DHT22;7330;50.804;4.550;2022-11-22T20:05:51;10.10;99.90
14489;DHT22;7330;50.804;4.550;2022-11-22T20:08:19;10.10;99.90
14489;DHT22;7330;50.804;4.550;2022-11-22T20:10:47;10.10;99.90
14489;DHT22;7330;50.804;4.550;2022-11-22T20:13:14;10.10;99.90
14489;DHT22;7330;50.804;4.550;2022-11-22T20:15:40;10.10;99.90
14489;DHT22;7330;50.804;4.550;2022-11-22T20:20:34;10.10;99.90
14489;DHT22;7330;50.804;4.550;2022-11-22T20:25:28;10.10;99.90
14489;DHT22;7330;50.804;4.550;2022-11-22T20:27:56;10.10;99.90
14489;DHT22;7330;50.804;4.550;2022-11-22T20:30:22;10.20;99.90
14489;DHT22;7330;50.804;4.550;2022-11-22T20:32:49;10.20;99.90
14489;DHT22;7330;50.804;4.550;2022-11-22T20:35:17;10.20;99.90
14489;DHT22;7330;50.804;4.550;2022-11-22T20:37:43;10.20;99.90
14489;DHT22;7330;50.804;4.550;2022-11-22T20:40:10;10.20;99.90
14489;DHT22;7330;50.804;4.550;2022-11-22T20:42:37;10.20;99.90
14489;DHT22;7330;50.804;4.550;2022-11-22T20:50:01;10.20;99.90
14489;DHT22;7330;50.804;4.550;2022-11-22T20:52:28;10.20;99.90